Time;durP1;ratioP1;P1;durP2;ratioP2;P2;SDS_P1;SDS_P2;PMS_P1;PMS_P2;Temp;Humidity;BMP_temperature;BMP_pressure;BME280_temperature;BME280_humidity;BME280_pressure;Samples;Min_cycle;Max_cycle;Signal;HPM_P1;HPM_P2
2024/01/27 00:03:30;;;;;;;10.83;2.27;;;5.00;1.00;;;;;;8397848;28;20217;-62
2024/01/27 00:07:31;;;;;;;12.27;2.20;;;5.10;1.00;;;;;;8395978;28;20505;-61
2024/01/27 00:11:32;;;;;;;7.30;2.17;;;5.10;1.00;;;;;;8393213;28;20192;-63
2024/01/27 00:15:36;;;;;;;8.80;1.87;;;5.10;1.00;;;;;;8395989;28;20188;-63
2024/01/27 00:19:37;;;;;;;9.80;1.90;;;5.00;1.00;;;;;;8397989;28;20296;-64
2024/01/27 00:23:37;;;;;;;5.23;1.37;;;5.00;1.00;;;;;;8395645;28;20212;-62
2024/01/27 00:27:38;;;;;;;7.47;2.10;;;5.00;1.00;;;;;;8393644;28;20193;-61
2024/01/27 00:31:39;;;;;;;3.53;1.50;;;4.90;1.00;;;;;;8393251;28;20180;-63
2024/01/27 00:35:40;;;;;;;8.50;1.67;;;4.90;1.00;;;;;;8388698;28;20205;-61
2024/01/27 00:39:40;;;;;;;5.53;1.83;;;4.80;1.00;;;;;;8398994;28;20199;-62
2024/01/27 00:43:41;;;;;;;16.33;2.30;;;4.80;1.00;;;;;;8394142;28;20213;-63
2024/01/27 00:47:42;;;;;;;7.87;1.83;;;4.90;1.00;;;;;;8396237;28;20705;-62
2024/01/27 00:51:42;;;;;;;9.43;1.90;;;4.80;1.00;;;;;;8393284;28;20196;-62
2024/01/27 00:55:43;;;;;;;8.57;1.80;;;4.80;1.00;;;;;;8396796;28;20177;-61
2024/01/27 00:59:44;;;;;;;9.50;1.60;;;4.80;1.00;;;;;;8392847;28;20211;-64
2024/01/27 01:03:45;;;;;;;7.13;1.87;;;4.80;1.00;;;;;;8397742;28;20211;-61
2024/01/27 01:07:46;;;;;;;9.87;1.90;;;4.80;1.00;;;;;;8392655;28;20185;-61
2024/01/27 01:11:47;;;;;;;15.70;2.03;;;4.80;1.00;;;;;;8392047;28;20250;-61
2024/01/27 01:15:47;;;;;;;4.27;1.50;;;4.80;1.00;;;;;;8391804;28;20185;-62
2024/01/27 01:19:48;;;;;;;13.07;2.87;;;4.80;1.00;;;;;;8392313;28;20216;-63
2024/01/27 01:23:49;;;;;;;8.57;1.77;;;4.70;1.00;;;;;;8390144;28;20301;-61
2024/01/27 01:27:50;;;;;;;4.77;1.40;;;4.70;1.00;;;;;;8390905;28;20181;-62
2024/01/27 01:31:51;;;;;;;8.03;1.70;;;4.70;1.00;;;;;;8391249;28;20332;-61
2024/01/27 01:35:51;;;;;;;9.47;1.47;;;4.70;1.00;;;;;;8392741;28;20524;-61
2024/01/27 01:39:52;;;;;;;9.10;2.30;;;4.80;1.00;;;;;;8390722;28;20185;-62
2024/01/27 01:43:53;;;;;;;8.77;1.87;;;4.70;1.00;;;;;;8390616;28;20261;-60
2024/01/27 01:47:54;;;;;;;7.87;1.77;;;4.70;1.00;;;;;;8390861;28;20200;-62
2024/01/27 01:51:54;;;;;;;7.03;1.70;;;4.80;1.00;;;;;;8396014;28;20189;-64
2024/01/27 01:55:55;;;;;;;6.97;1.67;;;4.70;1.00;;;;;;8389563;28;20266;-62
2024/01/27 01:59:56;;;;;;;8.53;1.37;;;4.70;1.00;;;;;;8389831;28;20243;-61
2024/01/27 02:03:57;;;;;;;6.67;1.80;;;4.70;1.00;;;;;;8394744;28;20204;-60
2024/01/27 02:08:00;;;;;;;8.63;2.20;;;4.70;1.00;;;;;;8388807;28;20215;-61
2024/01/27 02:12:01;;;;;;;8.20;2.23;;;4.70;1.00;;;;;;8396238;28;20191;-63
2024/01/27 02:16:02;;;;;;;8.37;2.90;;;4.60;1.00;;;;;;8387907;28;20265;-61
2024/01/27 02:20:03;;;;;;;10.23;2.10;;;4.60;1.00;;;;;;8396406;28;20246;-61
2024/01/27 02:24:07;;;;;;;5.77;1.37;;;4.60;1.00;;;;;;8388807;28;20216;-63
2024/01/27 02:28:08;;;;;;;5.47;1.50;;;4.50;1.00;;;;;;8394040;28;20290;-61
2024/01/27 02:32:08;;;;;;;5.87;1.90;;;4.50;1.00;;;;;;8389873;28;20238;-62
2024/01/27 02:36:09;;;;;;;12.67;2.17;;;4.50;1.00;;;;;;8389563;28;20235;-63
2024/01/27 02:40:10;;;;;;;8.53;1.67;;;4.50;1.00;;;;;;8391621;28;20514;-62
2024/01/27 02:44:11;;;;;;;5.27;1.70;;;4.50;1.00;;;;;;8390855;28;20201;-62
2024/01/27 02:48:12;;;;;;;11.00;1.73;;;4.40;1.00;;;;;;8393074;28;20185;-62
2024/01/27 02:52:13;;;;;;;6.27;1.87;;;4.30;1.00;;;;;;8390143;28;20258;-62
2024/01/27 02:56:16;;;;;;;7.10;1.90;;;4.20;1.00;;;;;;8389784;28;20258;-63
2024/01/27 03:00:17;;;;;;;9.53;1.60;;;4.20;1.00;;;;;;8388340;28;20208;-62
2024/01/27 03:04:18;;;;;;;9.80;1.70;;;4.30;1.00;;;;;;8392293;28;20242;-61
2024/01/27 03:08:18;;;;;;;12.70;1.67;;;4.20;1.00;;;;;;8387425;28;20180;-62
2024/01/27 03:12:19;;;;;;;11.30;2.07;;;4.20;1.00;;;;;;8390715;28;20193;-62
2024/01/27 03:16:20;;;;;;;6.37;1.67;;;4.20;1.00;;;;;;8390908;28;20184;-61
2024/01/27 03:20:21;;;;;;;8.13;1.87;;;4.20;1.00;;;;;;8390291;28;20193;-61
2024/01/27 03:24:22;;;;;;;11.33;2.40;;;4.10;1.00;;;;;;8389668;28;20246;-61
2024/01/27 03:28:23;;;;;;;8.53;1.93;;;4.10;1.00;;;;;;8388262;28;20253;-62
2024/01/27 03:32:23;;;;;;;9.03;1.83;;;4.10;1.00;;;;;;8391537;28;20185;-66
2024/01/27 03:36:24;;;;;;;10.53;1.70;;;4.00;1.00;;;;;;8393009;28;20201;-64
2024/01/27 03:40:25;;;;;;;10.37;1.77;;;4.00;1.00;;;;;;8388758;28;20259;-64
2024/01/27 03:44:25;;;;;;;11.97;2.07;;;4.00;1.00;;;;;;8390131;28;20188;-66
2024/01/27 03:48:26;;;;;;;11.73;1.73;;;3.90;1.00;;;;;;8387374;28;20183;-65
2024/01/27 03:52:27;;;;;;;7.13;1.57;;;3.90;1.00;;;;;;8391969;28;20192;-64
2024/01/27 03:56:28;;;;;;;5.60;1.60;;;3.80;1.00;;;;;;8387954;28;20200;-64
2024/01/27 04:00:32;;;;;;;6.87;2.43;;;3.80;1.00;;;;;;8386325;28;20208;-61
2024/01/27 04:04:33;;;;;;;8.13;2.43;;;3.80;1.00;;;;;;8384952;28;20174;-62
2024/01/27 04:08:34;;;;;;;6.70;1.73;;;3.80;1.00;;;;;;8393545;28;20181;-66
2024/01/27 04:12:34;;;;;;;8.20;1.70;;;3.80;1.00;;;;;;8397177;28;20189;-64
2024/01/27 04:16:39;;;;;;;6.33;1.77;;;3.80;1.00;;;;;;8394789;28;20187;-66
2024/01/27 04:20:40;;;;;;;8.77;1.80;;;3.80;1.00;;;;;;8398153;28;20285;-63
2024/01/27 04:24:41;;;;;;;8.77;1.70;;;3.70;1.00;;;;;;8391897;28;21103;-62
2024/01/27 04:28:41;;;;;;;10.93;2.10;;;3.70;1.00;;;;;;8393624;28;20244;-63
2024/01/27 04:32:42;;;;;;;14.07;2.47;;;3.60;1.00;;;;;;8398694;28;20188;-62
2024/01/27 04:36:46;;;;;;;9.80;1.83;;;3.50;1.00;;;;;;8391924;28;20203;-61
2024/01/27 04:40:48;;;;;;;10.83;2.03;;;3.50;1.00;;;;;;8387410;28;20625;-61
2024/01/27 04:44:49;;;;;;;10.33;1.83;;;3.50;1.00;;;;;;8393818;28;20182;-62
2024/01/27 04:48:50;;;;;;;8.33;1.70;;;3.50;1.00;;;;;;8392777;28;20183;-60
2024/01/27 04:52:51;;;;;;;9.83;1.90;;;3.50;1.00;;;;;;8398016;28;20188;-63
2024/01/27 04:56:52;;;;;;;10.67;1.63;;;3.50;1.00;;;;;;8395591;28;20572;-63
2024/01/27 05:00:52;;;;;;;11.83;1.90;;;3.50;1.00;;;;;;8396194;28;20224;-63
2024/01/27 05:04:53;;;;;;;16.53;2.00;;;3.40;1.00;;;;;;8392405;28;20181;-61
2024/01/27 05:08:54;;;;;;;11.57;2.10;;;3.40;1.00;;;;;;8391202;28;20366;-62
2024/01/27 05:12:56;;;;;;;14.17;2.80;;;3.30;1.00;;;;;;8389023;28;20219;-64
2024/01/27 05:16:56;;;;;;;10.07;1.90;;;3.30;1.00;;;;;;8395981;28;20191;-62
2024/01/27 05:20:57;;;;;;;11.53;2.00;;;3.30;1.00;;;;;;8391407;28;20204;-64
2024/01/27 05:24:58;;;;;;;9.27;1.80;;;3.30;1.00;;;;;;8397680;28;20276;-61
2024/01/27 05:28:58;;;;;;;9.57;1.80;;;3.20;1.00;;;;;;8386179;28;20234;-63
2024/01/27 05:32:59;;;;;;;9.40;2.30;;;3.20;1.00;;;;;;8390317;28;20189;-66
2024/01/27 05:37:00;;;;;;;11.87;1.77;;;3.20;1.00;;;;;;8388643;28;20243;-63
2024/01/27 05:41:01;;;;;;;9.50;1.90;;;3.20;1.00;;;;;;8394608;28;20235;-63
2024/01/27 05:45:02;;;;;;;8.30;1.90;;;3.10;1.00;;;;;;8390564;28;20213;-64
2024/01/27 05:49:03;;;;;;;13.23;2.20;;;3.10;1.00;;;;;;8386262;28;20277;-67
2024/01/27 05:53:04;;;;;;;9.37;2.27;;;3.00;1.00;;;;;;8397204;28;20189;-64
2024/01/27 05:57:05;;;;;;;8.27;2.20;;;3.10;1.00;;;;;;8394038;28;20212;-63
2024/01/27 06:01:05;;;;;;;12.83;2.27;;;3.20;1.00;;;;;;8392210;28;20236;-63
2024/01/27 06:05:08;;;;;;;7.20;1.93;;;3.20;1.00;;;;;;8393274;28;20267;-63
2024/01/27 06:09:13;;;;;;;6.13;1.43;;;3.30;1.00;;;;;;8395060;28;20176;-62
2024/01/27 06:13:14;;;;;;;9.50;2.27;;;3.30;1.00;;;;;;8395990;28;20193;-62
2024/01/27 06:17:16;;;;;;;13.03;2.10;;;3.30;1.00;;;;;;8397633;28;20253;-61
2024/01/27 06:21:16;;;;;;;11.07;2.20;;;3.40;1.00;;;;;;8390785;28;20217;-62
2024/01/27 06:25:17;;;;;;;11.33;2.37;;;3.50;1.00;;;;;;8402579;28;20219;-62
2024/01/27 06:29:18;;;;;;;12.43;1.93;;;3.50;1.00;;;;;;8394929;28;20177;-62
2024/01/27 06:33:20;;;;;;;10.40;1.93;;;3.60;1.00;;;;;;8391789;28;20503;-61
2024/01/27 06:37:20;;;;;;;8.30;1.63;;;3.60;1.00;;;;;;8396065;28;20277;-61
2024/01/27 06:41:21;;;;;;;10.83;2.27;;;3.50;1.00;;;;;;8391216;28;20499;-62
2024/01/27 06:45:22;;;;;;;12.70;2.63;;;3.50;1.00;;;;;;8388542;28;20490;-62
2024/01/27 06:49:22;;;;;;;7.30;1.90;;;3.40;1.00;;;;;;8384587;28;20184;-62
2024/01/27 06:53:23;;;;;;;10.27;2.27;;;3.40;1.00;;;;;;8390118;28;20262;-65
2024/01/27 06:57:27;;;;;;;12.80;2.20;;;3.40;1.00;;;;;;8386239;28;20189;-66
2024/01/27 07:01:28;;;;;;;9.83;1.80;;;3.40;1.00;;;;;;8383606;28;20416;-65
2024/01/27 07:05:29;;;;;;;11.73;2.50;;;3.40;1.00;;;;;;8391251;28;20200;-67
2024/01/27 07:09:30;;;;;;;14.60;2.93;;;3.50;1.00;;;;;;8392196;28;20177;-65
2024/01/27 07:13:30;;;;;;;9.10;1.83;;;3.60;1.00;;;;;;8394797;28;20222;-64
2024/01/27 07:17:31;;;;;;;11.90;2.63;;;3.80;1.00;;;;;;8391612;28;20181;-64
2024/01/27 07:21:32;;;;;;;11.37;2.33;;;3.80;1.00;;;;;;8389561;28;20208;-64
2024/01/27 07:25:33;;;;;;;10.47;2.90;;;4.00;1.00;;;;;;8387784;28;20177;-63
2024/01/27 07:29:33;;;;;;;13.77;3.83;;;4.00;1.00;;;;;;8396292;28;20184;-65
2024/01/27 07:33:34;;;;;;;13.77;2.63;;;4.10;1.00;;;;;;8390841;28;20197;-66
2024/01/27 07:37:36;;;;;;;10.77;2.27;;;4.10;1.00;;;;;;8389950;28;20192;-64
2024/01/27 07:41:36;;;;;;;10.87;2.13;;;4.20;1.00;;;;;;8391915;28;20300;-68
2024/01/27 07:45:37;;;;;;;11.70;2.03;;;4.20;1.00;;;;;;8396437;28;20246;-63
2024/01/27 07:49:38;;;;;;;9.90;1.83;;;4.20;1.00;;;;;;8399417;28;20223;-66
2024/01/27 07:53:39;;;;;;;14.17;2.70;;;4.20;1.00;;;;;;8396809;28;20189;-66
2024/01/27 07:57:39;;;;;;;12.97;2.10;;;4.30;1.00;;;;;;8399430;28;20188;-67
2024/01/27 08:01:41;;;;;;;11.07;2.10;;;4.30;1.00;;;;;;8401821;28;20223;-66
2024/01/27 08:05:41;;;;;;;15.23;2.23;;;4.40;1.00;;;;;;8411571;27;20185;-66
2024/01/27 08:09:42;;;;;;;11.73;2.27;;;4.40;1.00;;;;;;8393040;28;20180;-65
2024/01/27 08:13:43;;;;;;;8.37;2.47;;;4.40;1.00;;;;;;8397439;28;20177;-66
2024/01/27 08:17:44;;;;;;;10.50;2.10;;;4.50;1.00;;;;;;8398078;28;20177;-66
2024/01/27 08:21:45;;;;;;;14.97;2.30;;;4.50;1.00;;;;;;8394358;28;20205;-65
2024/01/27 08:25:47;;;;;;;11.53;2.37;;;4.50;1.00;;;;;;8395139;28;20282;-64
2024/01/27 08:29:48;;;;;;;6.93;1.93;;;4.60;1.00;;;;;;8394711;28;20177;-64
2024/01/27 08:33:48;;;;;;;8.30;2.60;;;4.60;1.00;;;;;;8395316;28;20204;-66
2024/01/27 08:37:49;;;;;;;10.37;2.00;;;4.70;1.00;;;;;;8394355;28;20208;-69
2024/01/27 08:41:50;;;;;;;10.43;2.23;;;4.70;1.00;;;;;;8395173;28;20270;-67
2024/01/27 08:45:51;;;;;;;8.70;2.07;;;4.70;1.00;;;;;;8396067;28;20185;-67
2024/01/27 08:49:52;;;;;;;9.73;2.30;;;4.80;1.00;;;;;;8394773;28;20182;-64
2024/01/27 08:53:53;;;;;;;11.40;2.63;;;4.90;1.00;;;;;;8393388;28;20192;-63
2024/01/27 08:57:53;;;;;;;10.50;2.53;;;4.90;1.00;;;;;;8393354;28;20193;-63
2024/01/27 09:01:54;;;;;;;12.10;2.47;;;5.10;1.00;;;;;;8397666;28;20224;-64
2024/01/27 09:05:55;;;;;;;10.90;2.57;;;4.90;1.00;;;;;;8392936;28;20307;-65
2024/01/27 09:09:56;;;;;;;12.87;2.40;;;4.90;1.00;;;;;;8397942;28;20188;-64
2024/01/27 09:13:57;;;;;;;9.73;2.07;;;5.10;1.00;;;;;;8393909;28;20475;-64
2024/01/27 09:17:57;;;;;;;11.23;2.30;;;4.90;1.00;;;;;;8394887;28;20180;-64
2024/01/27 09:21:58;;;;;;;8.43;2.40;;;4.90;1.00;;;;;;8401233;28;20216;-67
2024/01/27 09:25:59;;;;;;;14.80;2.70;;;5.00;1.00;;;;;;8393481;28;20177;-69
2024/01/27 09:30:00;;;;;;;8.20;2.07;;;5.10;1.00;;;;;;8394976;28;20185;-69
2024/01/27 09:34:01;;;;;;;8.40;2.30;;;5.10;1.00;;;;;;8391953;28;20261;-66
2024/01/27 09:38:02;;;;;;;17.83;2.67;;;5.10;1.00;;;;;;8394572;28;20192;-67
2024/01/27 09:42:06;;;;;;;11.00;2.40;;;5.10;1.00;;;;;;8400227;28;20254;-68
2024/01/27 09:46:08;;;;;;;12.87;2.40;;;5.20;1.00;;;;;;8410453;28;20260;-65
2024/01/27 09:50:12;;;;;;;9.97;2.53;;;5.20;1.00;;;;;;8405565;28;20495;-66
2024/01/27 09:54:16;;;;;;;10.80;2.20;;;5.20;1.00;;;;;;8397120;28;20176;-68
2024/01/27 09:58:17;;;;;;;8.27;1.57;;;5.30;1.00;;;;;;8392440;28;20197;-65
2024/01/27 10:02:20;;;;;;;12.70;3.10;;;5.40;1.00;;;;;;8388132;28;20193;-65
2024/01/27 10:06:21;;;;;;;7.67;2.63;;;5.40;1.00;;;;;;8397948;28;20189;-66
2024/01/27 10:10:22;;;;;;;9.80;2.13;;;5.40;1.00;;;;;;8393411;28;20185;-65
2024/01/27 10:14:23;;;;;;;10.50;2.23;;;5.50;1.00;;;;;;8393313;28;20241;-67
2024/01/27 10:18:24;;;;;;;9.67;2.30;;;5.60;1.00;;;;;;8392572;28;20191;-67
2024/01/27 10:22:27;;;;;;;11.73;1.73;;;5.50;1.00;;;;;;8396555;28;20200;-64
2024/01/27 10:26:32;;;;;;;6.07;1.83;;;5.50;1.00;;;;;;8402071;28;20249;-65
2024/01/27 10:30:32;;;;;;;10.03;2.40;;;5.80;1.00;;;;;;8395941;28;20172;-66
2024/01/27 10:34:33;;;;;;;10.13;2.20;;;5.80;1.00;;;;;;8392820;28;20215;-66
2024/01/27 10:38:36;;;;;;;7.37;1.83;;;5.80;1.00;;;;;;8391761;28;20185;-68
2024/01/27 10:42:37;;;;;;;11.30;2.27;;;5.80;1.00;;;;;;8392960;28;20382;-64
2024/01/27 10:46:38;;;;;;;13.97;2.17;;;5.80;1.00;;;;;;8397686;28;20214;-65
2024/01/27 10:50:40;;;;;;;9.70;1.80;;;5.90;1.00;;;;;;8395110;28;20189;-67
2024/01/27 10:54:44;;;;;;;13.40;2.13;;;6.00;1.00;;;;;;8397661;28;20207;-66
2024/01/27 10:58:47;;;;;;;11.97;2.10;;;5.90;1.00;;;;;;8388923;28;20193;-66
2024/01/27 11:02:52;;;;;;;7.00;1.53;;;6.00;1.00;;;;;;8393660;28;20239;-68
2024/01/27 11:06:54;;;;;;;9.43;2.13;;;6.00;1.00;;;;;;8393819;28;20293;-64
2024/01/27 11:10:56;;;;;;;7.47;2.20;;;6.10;1.00;;;;;;8392512;28;20256;-64
2024/01/27 11:14:59;;;;;;;9.33;2.10;;;6.20;1.00;;;;;;8390784;28;20184;-66
2024/01/27 11:19:00;;;;;;;7.47;1.70;;;6.00;1.00;;;;;;8399407;28;20187;-65
2024/01/27 11:23:09;;;;;;;11.00;1.80;;;5.90;1.00;;;;;;8396036;28;20224;-67
2024/01/27 11:27:13;;;;;;;8.83;1.90;;;5.90;1.00;;;;;;8395868;28;20177;-63
2024/01/27 11:31:20;;;;;;;6.83;2.30;;;6.30;1.00;;;;;;8399149;28;20180;-63
2024/01/27 11:35:21;;;;;;;8.27;2.80;;;6.50;1.00;;;;;;8401571;28;20219;-66
2024/01/27 11:39:31;;;;;;;13.57;3.30;;;6.60;1.00;;;;;;8401849;28;20185;-66
2024/01/27 11:43:35;;;;;;;5.73;1.77;;;6.70;1.00;;;;;;8401312;28;20213;-68
2024/01/27 11:47:36;;;;;;;11.20;2.67;;;6.60;1.00;;;;;;8394055;28;20180;-63
2024/01/27 11:51:37;;;;;;;17.83;3.07;;;6.50;1.00;;;;;;8397432;28;20176;-64
2024/01/27 11:55:37;;;;;;;8.43;2.63;;;6.40;1.00;;;;;;8396155;28;20184;-65
2024/01/27 11:59:38;;;;;;;10.70;2.17;;;6.40;1.00;;;;;;8394368;28;20307;-67
2024/01/27 12:03:39;;;;;;;9.90;2.27;;;6.10;1.00;;;;;;8392702;28;20215;-65
2024/01/27 12:07:40;;;;;;;11.53;2.60;;;6.00;1.00;;;;;;8393749;28;20173;-63
2024/01/27 12:11:41;;;;;;;8.37;2.30;;;6.00;1.00;;;;;;8391992;28;20226;-65
2024/01/27 12:15:43;;;;;;;11.40;2.90;;;6.00;1.00;;;;;;8393953;28;20184;-65
2024/01/27 12:19:53;;;;;;;9.07;2.37;;;5.90;1.00;;;;;;8392516;28;20184;-64
2024/01/27 12:23:58;;;;;;;11.57;2.70;;;6.00;1.00;;;;;;8395627;28;20307;-63
2024/01/27 12:28:03;;;;;;;8.27;2.60;;;5.90;1.00;;;;;;8389073;28;20199;-64
2024/01/27 12:32:04;;;;;;;11.90;2.63;;;5.90;1.00;;;;;;8391319;28;20185;-69
2024/01/27 12:36:08;;;;;;;14.27;2.43;;;6.00;1.00;;;;;;8393294;28;20275;-64
2024/01/27 12:40:18;;;;;;;9.80;2.67;;;6.00;1.00;;;;;;8396961;28;20180;-64
2024/01/27 12:44:19;;;;;;;10.73;2.40;;;6.00;1.00;;;;;;8402614;28;20206;-65
2024/01/27 12:48:20;;;;;;;10.03;2.47;;;6.00;1.00;;;;;;8393944;28;21802;-66
2024/01/27 12:52:23;;;;;;;8.87;2.23;;;6.00;1.00;;;;;;8390601;28;20193;-67
2024/01/27 12:56:24;;;;;;;11.57;2.47;;;6.00;1.00;;;;;;8392938;28;20304;-65
2024/01/27 13:00:25;;;;;;;8.07;2.23;;;6.00;1.00;;;;;;8392164;28;20205;-68
2024/01/27 13:04:26;;;;;;;12.80;2.47;;;6.00;1.00;;;;;;8405843;28;20227;-65
2024/01/27 13:08:27;;;;;;;12.00;2.37;;;6.00;1.00;;;;;;8389563;28;20177;-64
2024/01/27 13:12:28;;;;;;;10.70;2.60;;;6.00;1.00;;;;;;8394271;28;20185;-64
2024/01/27 13:16:28;;;;;;;7.87;1.93;;;6.00;1.00;;;;;;8389768;28;20196;-67
2024/01/27 13:20:29;;;;;;;13.27;3.03;;;6.00;1.00;;;;;;8391610;28;20239;-67
2024/01/27 13:24:30;;;;;;;9.93;2.20;;;5.90;1.00;;;;;;8389263;28;20215;-63
2024/01/27 13:28:31;;;;;;;9.37;2.10;;;5.90;1.00;;;;;;8391027;28;20180;-63
2024/01/27 13:32:32;;;;;;;9.13;2.17;;;5.90;1.00;;;;;;8393956;28;20616;-64
2024/01/27 13:36:33;;;;;;;10.77;2.77;;;5.90;1.00;;;;;;8390944;28;20283;-63
2024/01/27 13:40:34;;;;;;;8.60;2.03;;;6.00;1.00;;;;;;8392741;28;20185;-62
2024/01/27 13:44:36;;;;;;;7.53;3.23;;;6.00;1.00;;;;;;8390403;28;20216;-63
2024/01/27 13:48:38;;;;;;;11.10;2.30;;;6.10;1.00;;;;;;8391143;28;20205;-63
2024/01/27 13:52:40;;;;;;;13.33;2.40;;;6.00;1.00;;;;;;8395234;28;20197;-64
2024/01/27 13:56:41;;;;;;;10.57;2.30;;;5.90;1.00;;;;;;8391828;28;20197;-62
2024/01/27 14:00:42;;;;;;;9.73;2.53;;;5.90;1.00;;;;;;8390975;28;20223;-63
2024/01/27 14:04:43;;;;;;;6.47;2.73;;;5.90;1.00;;;;;;8392556;28;20205;-65
2024/01/27 14:08:44;;;;;;;12.00;2.57;;;5.90;1.00;;;;;;8393012;28;20185;-63
2024/01/27 14:12:45;;;;;;;13.17;2.97;;;5.90;1.00;;;;;;8393787;28;20180;-62
2024/01/27 14:16:47;;;;;;;10.70;2.50;;;5.80;1.00;;;;;;8394422;28;20196;-63
2024/01/27 14:20:48;;;;;;;11.77;2.60;;;5.80;1.00;;;;;;8389129;28;20188;-65
2024/01/27 14:24:50;;;;;;;12.07;2.23;;;5.70;1.00;;;;;;8387700;28;20242;-63
2024/01/27 14:28:51;;;;;;;9.07;2.40;;;5.70;1.00;;;;;;8391309;28;20181;-62
2024/01/27 14:32:52;;;;;;;10.87;2.70;;;5.70;1.00;;;;;;8391519;28;20213;-62
2024/01/27 14:36:54;;;;;;;9.67;2.77;;;5.60;1.00;;;;;;8392311;28;20208;-62
2024/01/27 14:40:55;;;;;;;9.67;2.20;;;5.60;1.00;;;;;;8392847;28;20185;-64
2024/01/27 14:44:56;;;;;;;9.40;2.83;;;5.60;1.00;;;;;;8389678;28;20209;-62
2024/01/27 14:48:57;;;;;;;10.87;2.50;;;5.50;1.00;;;;;;8390808;28;20191;-63
2024/01/27 14:52:58;;;;;;;11.13;2.57;;;5.50;1.00;;;;;;8390761;28;20270;-64
2024/01/27 14:56:59;;;;;;;7.93;2.23;;;5.50;1.00;;;;;;8393264;28;20185;-63
2024/01/27 15:01:00;;;;;;;13.60;2.47;;;5.50;1.00;;;;;;8395228;28;20223;-63
2024/01/27 15:05:01;;;;;;;10.03;2.13;;;5.40;1.00;;;;;;8393867;28;20279;-64
2024/01/27 15:09:02;;;;;;;11.33;2.47;;;5.40;1.00;;;;;;8392780;28;20181;-64
2024/01/27 15:13:03;;;;;;;11.80;2.60;;;5.40;1.00;;;;;;8394406;28;20199;-63
2024/01/27 15:17:04;;;;;;;8.93;2.20;;;5.40;1.00;;;;;;8391624;28;20184;-64
2024/01/27 15:21:05;;;;;;;11.83;2.70;;;5.30;1.00;;;;;;8403942;28;20411;-65
2024/01/27 15:25:06;;;;;;;11.80;2.90;;;5.30;1.00;;;;;;8389254;28;20347;-63
2024/01/27 15:29:07;;;;;;;10.20;2.43;;;5.30;1.00;;;;;;8394355;28;20184;-66
2024/01/27 15:33:08;;;;;;;8.53;3.17;;;5.30;1.00;;;;;;8389469;28;20197;-64
2024/01/27 15:37:09;;;;;;;9.70;3.00;;;5.20;1.00;;;;;;8394734;28;20197;-64
2024/01/27 15:41:10;;;;;;;10.43;2.63;;;5.20;1.00;;;;;;8395363;28;20277;-64
2024/01/27 15:45:10;;;;;;;11.07;2.90;;;5.20;1.00;;;;;;8394440;28;20185;-64
2024/01/27 15:49:11;;;;;;;12.90;3.13;;;5.20;1.00;;;;;;8392670;28;20182;-64
2024/01/27 15:53:12;;;;;;;10.53;2.60;;;5.20;1.00;;;;;;8392552;28;20257;-63
2024/01/27 15:57:13;;;;;;;10.97;2.40;;;5.10;1.00;;;;;;8391361;28;20185;-64
2024/01/27 16:01:13;;;;;;;7.53;2.70;;;5.10;1.00;;;;;;8399827;28;20220;-64
2024/01/27 16:05:15;;;;;;;10.93;2.63;;;5.10;1.00;;;;;;8390254;28;20189;-61
2024/01/27 16:09:15;;;;;;;9.20;2.63;;;5.10;1.00;;;;;;8395711;28;20185;-60
2024/01/27 16:13:16;;;;;;;8.67;2.90;;;5.00;1.00;;;;;;8394864;28;20184;-62
2024/01/27 16:17:17;;;;;;;9.13;2.50;;;5.00;1.00;;;;;;8394962;28;20288;-61
2024/01/27 16:21:18;;;;;;;12.73;2.67;;;5.00;1.00;;;;;;8393831;28;20212;-61
2024/01/27 16:25:19;;;;;;;9.03;2.17;;;5.00;1.00;;;;;;8395393;28;20179;-61
2024/01/27 16:29:20;;;;;;;9.57;2.60;;;5.00;1.00;;;;;;8394541;28;20306;-60
2024/01/27 16:33:20;;;;;;;7.00;2.50;;;5.00;1.00;;;;;;8400220;28;20192;-61
2024/01/27 16:37:21;;;;;;;9.03;3.10;;;5.00;1.00;;;;;;8392592;28;20206;-60
2024/01/27 16:41:22;;;;;;;9.37;2.73;;;5.00;1.00;;;;;;8396720;28;20234;-60
2024/01/27 16:45:23;;;;;;;12.10;2.80;;;5.00;1.00;;;;;;8398074;28;20177;-60
2024/01/27 16:49:23;;;;;;;9.87;2.80;;;5.00;1.00;;;;;;8398894;28;20250;-62
2024/01/27 16:53:25;;;;;;;8.40;2.83;;;5.00;1.00;;;;;;8394069;28;20261;-61
2024/01/27 16:57:27;;;;;;;13.10;2.80;;;5.00;1.00;;;;;;8392403;28;20189;-59
2024/01/27 17:01:28;;;;;;;11.30;3.50;;;5.00;1.00;;;;;;8395215;28;20209;-59
2024/01/27 17:05:29;;;;;;;12.10;3.37;;;5.10;1.00;;;;;;8392863;28;20181;-59
2024/01/27 17:09:29;;;;;;;10.57;3.90;;;5.10;1.00;;;;;;8394685;28;20267;-59
2024/01/27 17:13:31;;;;;;;10.43;2.90;;;5.10;1.00;;;;;;8391973;28;20195;-59
2024/01/27 17:17:33;;;;;;;9.10;2.60;;;5.00;1.00;;;;;;8393466;28;20181;-61
2024/01/27 17:21:34;;;;;;;5.33;2.80;;;5.00;1.00;;;;;;8390886;28;20296;-61
2024/01/27 17:25:35;;;;;;;11.23;2.80;;;5.00;1.00;;;;;;8390252;28;20197;-63
2024/01/27 17:29:36;;;;;;;9.93;2.70;;;4.90;1.00;;;;;;8392041;28;20181;-63
2024/01/27 17:33:38;;;;;;;8.97;2.53;;;4.90;1.00;;;;;;8394691;28;20258;-61
2024/01/27 17:37:39;;;;;;;9.73;3.10;;;4.90;1.00;;;;;;8394628;28;20193;-61
2024/01/27 17:41:40;;;;;;;8.93;3.03;;;4.90;1.00;;;;;;8402298;28;20251;-61
2024/01/27 17:45:41;;;;;;;10.87;3.03;;;4.90;1.00;;;;;;8392204;28;20184;-61
2024/01/27 17:49:42;;;;;;;9.77;2.87;;;4.90;1.00;;;;;;8391040;28;20247;-61
2024/01/27 17:53:43;;;;;;;6.33;2.20;;;4.80;1.00;;;;;;8399078;28;20189;-61
2024/01/27 17:57:44;;;;;;;11.53;3.00;;;4.80;1.00;;;;;;8393291;28;20210;-61
2024/01/27 18:01:45;;;;;;;10.77;3.07;;;4.80;1.00;;;;;;8392232;28;20616;-60
2024/01/27 18:05:49;;;;;;;19.60;3.23;;;4.80;1.00;;;;;;8402714;28;20188;-61
2024/01/27 18:09:50;;;;;;;13.63;3.20;;;4.80;1.00;;;;;;8390316;28;20206;-60
2024/01/27 18:13:51;;;;;;;6.87;2.13;;;4.80;1.00;;;;;;8391523;28;20185;-61
2024/01/27 18:17:53;;;;;;;14.00;3.50;;;4.80;1.00;;;;;;8391273;28;20192;-61
2024/01/27 18:21:54;;;;;;;11.80;2.53;;;4.70;1.00;;;;;;8391293;28;20200;-62
2024/01/27 18:25:55;;;;;;;10.00;3.03;;;4.70;1.00;;;;;;8385772;28;20413;-62
2024/01/27 18:29:56;;;;;;;11.53;2.43;;;4.70;1.00;;;;;;8396558;28;20184;-61
2024/01/27 18:33:57;;;;;;;12.27;2.70;;;4.70;1.00;;;;;;8398172;28;20195;-61
2024/01/27 18:37:57;;;;;;;12.23;2.53;;;4.60;1.00;;;;;;8406815;28;20252;-61
2024/01/27 18:41:58;;;;;;;9.73;2.67;;;4.60;1.00;;;;;;8394166;28;20227;-60
2024/01/27 18:46:00;;;;;;;6.27;2.50;;;4.60;1.00;;;;;;8393864;28;20237;-61
2024/01/27 18:50:01;;;;;;;15.27;2.90;;;4.60;1.00;;;;;;8394902;28;20414;-60
2024/01/27 18:54:02;;;;;;;8.60;2.80;;;4.60;1.00;;;;;;8394908;28;20189;-61
2024/01/27 18:58:07;;;;;;;11.07;3.40;;;4.60;1.00;;;;;;8394294;28;20200;-60
2024/01/27 19:02:10;;;;;;;16.80;3.23;;;4.60;1.00;;;;;;8395950;28;20231;-62
2024/01/27 19:06:12;;;;;;;8.07;2.80;;;4.60;1.30;;;;;;8390594;28;20189;-62
2024/01/27 19:10:13;;;;;;;10.60;2.90;;;4.50;3.00;;;;;;8390227;28;20181;-63
2024/01/27 19:14:15;;;;;;;8.80;3.40;;;4.50;6.40;;;;;;8397879;28;20188;-62
2024/01/27 19:18:16;;;;;;;11.50;3.03;;;4.50;13.60;;;;;;8405392;28;20289;-62
2024/01/27 19:22:17;;;;;;;10.27;3.27;;;4.40;17.30;;;;;;8393485;28;20213;-63
2024/01/27 19:26:18;;;;;;;15.87;3.73;;;4.40;20.50;;;;;;8392552;28;20190;-62
2024/01/27 19:30:19;;;;;;;10.70;3.57;;;4.40;23.00;;;;;;8392873;28;20513;-63
2024/01/27 19:34:20;;;;;;;11.73;3.33;;;4.40;27.20;;;;;;8392661;28;20330;-63
2024/01/27 19:38:21;;;;;;;14.67;3.20;;;4.40;25.30;;;;;;8394084;28;20188;-62
2024/01/27 19:42:22;;;;;;;10.10;2.93;;;4.40;24.70;;;;;;8401889;28;20217;-62
2024/01/27 19:46:24;;;;;;;13.03;3.57;;;4.40;19.20;;;;;;8398241;28;20185;-62
2024/01/27 19:50:25;;;;;;;12.97;2.97;;;4.40;13.40;;;;;;8401563;28;20285;-62
2024/01/27 19:54:26;;;;;;;11.53;2.67;;;4.40;15.80;;;;;;8398806;28;20212;-62
2024/01/27 19:58:27;;;;;;;10.47;2.67;;;4.40;12.90;;;;;;8396462;28;20208;-63
2024/01/27 20:02:28;;;;;;;13.03;3.30;;;4.40;3.40;;;;;;8396747;28;20216;-63
2024/01/27 20:06:31;;;;;;;11.30;2.57;;;4.50;1.00;;;;;;8400142;28;20245;-63
2024/01/27 20:10:32;;;;;;;9.73;2.63;;;4.50;1.00;;;;;;8399288;28;20256;-63
2024/01/27 20:14:33;;;;;;;10.53;2.33;;;4.50;1.00;;;;;;8395476;28;20414;-62
2024/01/27 20:18:34;;;;;;;11.50;2.63;;;4.50;1.00;;;;;;8390304;28;20211;-62
2024/01/27 20:22:34;;;;;;;11.67;3.10;;;4.50;1.00;;;;;;8393104;28;20221;-62
2024/01/27 20:26:35;;;;;;;9.90;2.73;;;4.50;1.00;;;;;;8399658;28;20184;-63
2024/01/27 20:30:36;;;;;;;10.57;3.50;;;4.50;1.00;;;;;;8394374;28;20207;-63
2024/01/27 20:34:37;;;;;;;10.23;2.70;;;4.50;1.00;;;;;;8398827;28;20291;-62
2024/01/27 20:38:39;;;;;;;8.83;2.53;;;4.50;1.00;;;;;;8396414;28;20196;-63
2024/01/27 20:42:40;;;;;;;12.00;2.60;;;4.50;1.00;;;;;;8395437;28;20289;-63
2024/01/27 20:46:40;;;;;;;11.53;2.37;;;4.50;1.00;;;;;;8394374;28;20239;-62
2024/01/27 20:50:41;;;;;;;9.40;2.40;;;4.50;1.00;;;;;;8393819;28;20184;-62
2024/01/27 20:54:42;;;;;;;15.20;2.80;;;4.50;1.00;;;;;;8396554;28;20190;-63
2024/01/27 20:58:43;;;;;;;11.17;2.80;;;4.50;1.00;;;;;;8393638;28;20454;-64
2024/01/27 21:02:44;;;;;;;11.63;2.73;;;4.50;1.00;;;;;;8396110;28;20204;-61
2024/01/27 21:06:45;;;;;;;12.83;2.30;;;4.60;1.00;;;;;;8394584;28;20180;-61
2024/01/27 21:10:46;;;;;;;9.13;2.93;;;4.50;1.00;;;;;;8389428;28;20259;-60
2024/01/27 21:14:47;;;;;;;12.60;2.60;;;4.50;1.00;;;;;;8394770;28;20177;-60
2024/01/27 21:18:48;;;;;;;12.40;2.77;;;4.50;1.00;;;;;;8395281;28;20199;-61
2024/01/27 21:22:49;;;;;;;15.33;2.90;;;4.50;1.00;;;;;;8393540;28;20209;-60